KNUW/NUW METAR and TAF weather

Enter ICAO airport designator
Station Type Date Time Source
KNUW METAR 2019/11/22 00:56 UTC NOAA

KNUW 220056Z 00000KT 10SM FEW200 06/03 A3003 RMK AO2 SLP169 T00560028 $


Station Type Date Time Source
KNUW Decoded METAR 2019/11/22 00:56 UTC NOAA

NAS WHIDBEY ISLAND, WA, United States (KNUW) 48-21N 122-39W 8M
Nov 21, 2019 - 07:56 PM EST / 2019.11.22 0056 UTC
Wind: Calm:0
Visibility: 10 mile(s):0
Sky conditions: mostly clear
Temperature: 42.1 F (5.6 C)
Dew Point: 37.0 F (2.8 C)
Relative Humidity: 82%
Pressure (altimeter): 30.03 in. Hg (1016 hPa)
ob: KNUW 220056Z 00000KT 10SM FEW200 06/03 A3003 RMK AO2 SLP169 T00560028
cycle: 1

Station Type Date Time Source
KNUW TAF 2019/11/21 23:59 UTC NOAA

TAF KNUW 2123/2223 VRB06KT 9999 FEW200 QNH2996INS
TEMPO 2211/2217 13006KT 8000 BR BCFG BKN010
FM222000 14008KT 9999 FEW030 SCT150 BKN200 QNH3025INS T10/2123Z T01/2213Z FS30028

Example: see airport list